sensor_id;sensor_type;location;lat;lon;timestamp;pressure;altitude;pressure_sealevel;temperature
20867;BMP280;10593;48.398;10.698;2023-04-10T00:02:09;96857.56;;;13.46
20867;BMP280;10593;48.398;10.698;2023-04-10T00:04:35;96852.44;;;13.43
20867;BMP280;10593;48.398;10.698;2023-04-10T00:07:00;96854.22;;;13.41
20867;BMP280;10593;48.398;10.698;2023-04-10T00:09:26;96850.81;;;13.39
20867;BMP280;10593;48.398;10.698;2023-04-10T00:11:53;96853.47;;;13.36
20867;BMP280;10593;48.398;10.698;2023-04-10T00:14:19;96855.22;;;13.34
20867;BMP280;10593;48.398;10.698;2023-04-10T00:16:48;96846.69;;;13.30
20867;BMP280;10593;48.398;10.698;2023-04-10T00:19:14;96840.72;;;13.27
20867;BMP280;10593;48.398;10.698;2023-04-10T00:21:40;96839.00;;;13.26
20867;BMP280;10593;48.398;10.698;2023-04-10T00:24:06;96834.75;;;13.23
20867;BMP280;10593;48.398;10.698;2023-04-10T00:26:31;96825.34;;;13.21
20867;BMP280;10593;48.398;10.698;2023-04-10T00:28:57;96834.84;;;13.19
20867;BMP280;10593;48.398;10.698;2023-04-10T00:31:22;96820.28;;;13.16
20867;BMP280;10593;48.398;10.698;2023-04-10T00:33:48;96818.59;;;13.14
20867;BMP280;10593;48.398;10.698;2023-04-10T00:36:14;96811.78;;;13.11
20867;BMP280;10593;48.398;10.698;2023-04-10T00:38:40;96811.81;;;13.08
20867;BMP280;10593;48.398;10.698;2023-04-10T00:41:06;96805.00;;;13.06
20867;BMP280;10593;48.398;10.698;2023-04-10T00:43:31;96811.03;;;13.05
20867;BMP280;10593;48.398;10.698;2023-04-10T00:45:58;96799.03;;;13.02
20867;BMP280;10593;48.398;10.698;2023-04-10T00:48:24;96796.47;;;13.01
20867;BMP280;10593;48.398;10.698;2023-04-10T00:50:50;96801.69;;;12.99
20867;BMP280;10593;48.398;10.698;2023-04-10T00:53:16;96801.69;;;12.98
20867;BMP280;10593;48.398;10.698;2023-04-10T00:55:43;96798.31;;;12.96
20867;BMP280;10593;48.398;10.698;2023-04-10T00:58:09;96794.91;;;12.94
20867;BMP280;10593;48.398;10.698;2023-04-10T01:00:39;96795.78;;;12.93
20867;BMP280;10593;48.398;10.698;2023-04-10T01:03:07;96795.75;;;12.91
20867;BMP280;10593;48.398;10.698;2023-04-10T01:09:09;96796.72;;;12.86
20867;BMP280;10593;48.398;10.698;2023-04-10T01:11:53;96791.63;;;12.83
20867;BMP280;10593;48.398;10.698;2023-04-10T01:14:52;96801.13;;;12.79
20867;BMP280;10593;48.398;10.698;2023-04-10T01:17:34;96799.47;;;12.77
20867;BMP280;10593;48.398;10.698;2023-04-10T01:20:12;96800.34;;;12.76
20867;BMP280;10593;48.398;10.698;2023-04-10T01:26:02;96803.91;;;12.69
20867;BMP280;10593;48.398;10.698;2023-04-10T01:28:52;96806.50;;;12.67
20867;BMP280;10593;48.398;10.698;2023-04-10T01:31:33;96800.53;;;12.65
20867;BMP280;10593;48.398;10.698;2023-04-10T01:34:31;96798.84;;;12.63
20867;BMP280;10593;48.398;10.698;2023-04-10T01:37:04;96793.69;;;12.63
20867;BMP280;10593;48.398;10.698;2023-04-10T01:39:35;96793.72;;;12.61
20867;BMP280;10593;48.398;10.698;2023-04-10T01:42:05;96797.19;;;12.59
20867;BMP280;10593;48.398;10.698;2023-04-10T01:44:33;96790.34;;;12.58
20867;BMP280;10593;48.398;10.698;2023-04-10T01:47:03;96792.09;;;12.56
20867;BMP280;10593;48.398;10.698;2023-04-10T01:49:31;96790.41;;;12.55
20867;BMP280;10593;48.398;10.698;2023-04-10T01:51:59;96789.59;;;12.53
20867;BMP280;10593;48.398;10.698;2023-04-10T01:54:26;96790.47;;;12.50
20867;BMP280;10593;48.398;10.698;2023-04-10T01:56:52;96784.50;;;12.47
20867;BMP280;10593;48.398;10.698;2023-04-10T01:59:19;96783.69;;;12.45
20867;BMP280;10593;48.398;10.698;2023-04-10T02:01:45;96791.47;;;12.44
20867;BMP280;10593;48.398;10.698;2023-04-10T02:04:11;96785.47;;;12.42
20867;BMP280;10593;48.398;10.698;2023-04-10T02:06:56;96785.50;;;12.40
20867;BMP280;10593;48.398;10.698;2023-04-10T02:09:30;96780.41;;;12.37
20867;BMP280;10593;48.398;10.698;2023-04-10T02:12:14;96785.59;;;12.34
20867;BMP280;10593;48.398;10.698;2023-04-10T02:14:44;96775.34;;;12.31
20867;BMP280;10593;48.398;10.698;2023-04-10T02:17:15;96780.50;;;12.30
20867;BMP280;10593;48.398;10.698;2023-04-10T02:19:42;96777.97;;;12.28
20867;BMP280;10593;48.398;10.698;2023-04-10T02:22:09;96769.41;;;12.26
20867;BMP280;10593;48.398;10.698;2023-04-10T02:24:36;96774.56;;;12.25
20867;BMP280;10593;48.398;10.698;2023-04-10T02:27:02;96772.88;;;12.24
20867;BMP280;10593;48.398;10.698;2023-04-10T02:29:27;96767.78;;;12.21
20867;BMP280;10593;48.398;10.698;2023-04-10T02:31:53;96770.38;;;12.19
20867;BMP280;10593;48.398;10.698;2023-04-10T02:34:19;96770.41;;;12.16
20867;BMP280;10593;48.398;10.698;2023-04-10T02:36:44;96773.00;;;12.15
20867;BMP280;10593;48.398;10.698;2023-04-10T02:39:10;96770.47;;;12.13
20867;BMP280;10593;48.398;10.698;2023-04-10T02:41:36;96771.38;;;12.11
20867;BMP280;10593;48.398;10.698;2023-04-10T02:44:02;96773.94;;;12.09
20867;BMP280;10593;48.398;10.698;2023-04-10T02:46:27;96773.13;;;12.07
20867;BMP280;10593;48.398;10.698;2023-04-10T02:48:54;96774.06;;;12.05
20867;BMP280;10593;48.398;10.698;2023-04-10T02:51:19;96776.63;;;12.02
20867;BMP280;10593;48.398;10.698;2023-04-10T02:53:46;96770.66;;;12.01
20867;BMP280;10593;48.398;10.698;2023-04-10T02:56:12;96770.66;;;12.00
20867;BMP280;10593;48.398;10.698;2023-04-10T02:58:38;96775.00;;;11.98
20867;BMP280;10593;48.398;10.698;2023-04-10T03:01:05;96771.59;;;11.96
20867;BMP280;10593;48.398;10.698;2023-04-10T03:03:34;96773.31;;;11.95
20867;BMP280;10593;48.398;10.698;2023-04-10T03:05:59;96774.19;;;11.94
20867;BMP280;10593;48.398;10.698;2023-04-10T03:08:25;96775.06;;;11.93
20867;BMP280;10593;48.398;10.698;2023-04-10T03:10:50;96768.22;;;11.92
20867;BMP280;10593;48.398;10.698;2023-04-10T03:13:16;96769.97;;;11.90
20867;BMP280;10593;48.398;10.698;2023-04-10T03:15:42;96773.41;;;11.89
20867;BMP280;10593;48.398;10.698;2023-04-10T03:18:08;96770.00;;;11.87
20867;BMP280;10593;48.398;10.698;2023-04-10T03:20:35;96774.34;;;11.85
20867;BMP280;10593;48.398;10.698;2023-04-10T03:23:07;96770.06;;;11.83
20867;BMP280;10593;48.398;10.698;2023-04-10T03:25:33;96770.94;;;11.82
20867;BMP280;10593;48.398;10.698;2023-04-10T03:27:59;96769.25;;;11.79
20867;BMP280;10593;48.398;10.698;2023-04-10T03:30:25;96771.00;;;11.77
20867;BMP280;10593;48.398;10.698;2023-04-10T03:32:50;96769.31;;;11.75
20867;BMP280;10593;48.398;10.698;2023-04-10T03:35:16;96766.78;;;11.73
20867;BMP280;10593;48.398;10.698;2023-04-10T03:37:41;96771.94;;;11.72
20867;BMP280;10593;48.398;10.698;2023-04-10T03:40:09;96777.13;;;11.69
20867;BMP280;10593;48.398;10.698;2023-04-10T03:42:35;96773.72;;;11.67
20867;BMP280;10593;48.398;10.698;2023-04-10T03:45:01;96772.91;;;11.65
20867;BMP280;10593;48.398;10.698;2023-04-10T03:47:30;96788.38;;;11.63
20867;BMP280;10593;48.398;10.698;2023-04-10T03:49:56;96783.25;;;11.60
20867;BMP280;10593;48.398;10.698;2023-04-10T03:52:21;96775.56;;;11.59
20867;BMP280;10593;48.398;10.698;2023-04-10T03:54:47;96780.75;;;11.57
20867;BMP280;10593;48.398;10.698;2023-04-10T03:57:13;96779.03;;;11.56
20867;BMP280;10593;48.398;10.698;2023-04-10T03:59:38;96781.59;;;11.55
20867;BMP280;10593;48.398;10.698;2023-04-10T04:02:06;96776.44;;;11.53
20867;BMP280;10593;48.398;10.698;2023-04-10T04:04:31;96782.47;;;11.52
20867;BMP280;10593;48.398;10.698;2023-04-10T04:06:57;96782.50;;;11.49
20867;BMP280;10593;48.398;10.698;2023-04-10T04:09:23;96779.97;;;11.46
20867;BMP280;10593;48.398;10.698;2023-04-10T04:11:48;96772.28;;;11.45
20867;BMP280;10593;48.398;10.698;2023-04-10T04:14:14;96782.59;;;11.43
20867;BMP280;10593;48.398;10.698;2023-04-10T04:16:39;96774.88;;;11.42
20867;BMP280;10593;48.398;10.698;2023-04-10T04:19:05;96773.19;;;11.39
20867;BMP280;10593;48.398;10.698;2023-04-10T04:21:31;96776.69;;;11.37
20867;BMP280;10593;48.398;10.698;2023-04-10T04:23:56;96780.09;;;11.36
20867;BMP280;10593;48.398;10.698;2023-04-10T04:26:22;96775.84;;;11.33
20867;BMP280;10593;48.398;10.698;2023-04-10T04:28:49;96775.03;;;11.31
20867;BMP280;10593;48.398;10.698;2023-04-10T04:31:15;96780.19;;;11.30
20867;BMP280;10593;48.398;10.698;2023-04-10T04:33:41;96778.50;;;11.27
20867;BMP280;10593;48.398;10.698;2023-04-10T04:36:07;96781.94;;;11.26
20867;BMP280;10593;48.398;10.698;2023-04-10T04:38:32;96785.38;;;11.25
20867;BMP280;10593;48.398;10.698;2023-04-10T04:40:58;96781.97;;;11.23
20867;BMP280;10593;48.398;10.698;2023-04-10T04:43:23;96789.69;;;11.23
20867;BMP280;10593;48.398;10.698;2023-04-10T04:45:49;96790.56;;;11.22
20867;BMP280;10593;48.398;10.698;2023-04-10T04:48:15;96782.03;;;11.20
20867;BMP280;10593;48.398;10.698;2023-04-10T04:50:41;96786.28;;;11.21
20867;BMP280;10593;48.398;10.698;2023-04-10T04:53:08;96786.28;;;11.21
20867;BMP280;10593;48.398;10.698;2023-04-10T04:55:33;96791.44;;;11.21
20867;BMP280;10593;48.398;10.698;2023-04-10T04:57:59;96793.16;;;11.21
20867;BMP280;10593;48.398;10.698;2023-04-10T05:00:25;96800.84;;;11.21
20867;BMP280;10593;48.398;10.698;2023-04-10T05:02:50;96798.28;;;11.21
20867;BMP280;10593;48.398;10.698;2023-04-10T05:05:16;96814.59;;;11.21
20867;BMP280;10593;48.398;10.698;2023-04-10T05:07:42;96822.31;;;11.21
20867;BMP280;10593;48.398;10.698;2023-04-10T05:10:08;96816.28;;;11.21
20867;BMP280;10593;48.398;10.698;2023-04-10T05:12:33;96820.56;;;11.22
20867;BMP280;10593;48.398;10.698;2023-04-10T05:14:59;96823.13;;;11.22
20867;BMP280;10593;48.398;10.698;2023-04-10T05:17:25;96822.31;;;11.21
20867;BMP280;10593;48.398;10.698;2023-04-10T05:19:51;96827.44;;;11.23
20867;BMP280;10593;48.398;10.698;2023-04-10T05:22:16;96823.97;;;11.27
20867;BMP280;10593;48.398;10.698;2023-04-10T05:24:42;96826.44;;;11.34
20867;BMP280;10593;48.398;10.698;2023-04-10T05:27:08;96825.47;;;11.44
20867;BMP280;10593;48.398;10.698;2023-04-10T05:29:33;96820.19;;;11.55
20867;BMP280;10593;48.398;10.698;2023-04-10T05:31:59;96821.72;;;11.69
20867;BMP280;10593;48.398;10.698;2023-04-10T05:34:25;96826.72;;;11.83
20867;BMP280;10593;48.398;10.698;2023-04-10T05:36:51;96818.78;;;11.99
20867;BMP280;10593;48.398;10.698;2023-04-10T05:39:16;96817.63;;;12.18
20867;BMP280;10593;48.398;10.698;2023-04-10T05:41:42;96810.44;;;12.38
20867;BMP280;10593;48.398;10.698;2023-04-10T05:44:08;96808.38;;;12.58
20867;BMP280;10593;48.398;10.698;2023-04-10T05:46:33;96803.69;;;12.81
20867;BMP280;10593;48.398;10.698;2023-04-10T05:49:00;96804.19;;;13.04
20867;BMP280;10593;48.398;10.698;2023-04-10T05:51:26;96798.53;;;13.28
20867;BMP280;10593;48.398;10.698;2023-04-10T05:53:53;96798.94;;;13.52
20867;BMP280;10593;48.398;10.698;2023-04-10T05:56:18;96794.91;;;13.79
20867;BMP280;10593;48.398;10.698;2023-04-10T05:58:44;96799.47;;;14.04
20867;BMP280;10593;48.398;10.698;2023-04-10T06:01:10;96792.06;;;14.29
20867;BMP280;10593;48.398;10.698;2023-04-10T06:03:35;96787.13;;;14.55
20867;BMP280;10593;48.398;10.698;2023-04-10T06:06:01;96797.69;;;14.80
20867;BMP280;10593;48.398;10.698;2023-04-10T06:08:27;96793.53;;;15.07
20867;BMP280;10593;48.398;10.698;2023-04-10T06:10:53;96792.94;;;15.29
20867;BMP280;10593;48.398;10.698;2023-04-10T06:13:19;96789.63;;;15.55
20867;BMP280;10593;48.398;10.698;2023-04-10T06:15:44;96799.25;;;15.80
20867;BMP280;10593;48.398;10.698;2023-04-10T06:18:10;96796.94;;;16.00
20867;BMP280;10593;48.398;10.698;2023-04-10T06:20:36;96793.94;;;16.12
20867;BMP280;10593;48.398;10.698;2023-04-10T06:23:02;96790.97;;;16.24
20867;BMP280;10593;48.398;10.698;2023-04-10T06:25:27;96794.06;;;16.37
20867;BMP280;10593;48.398;10.698;2023-04-10T06:27:53;96786.69;;;16.51
20867;BMP280;10593;48.398;10.698;2023-04-10T06:30:19;96779.47;;;16.60
20867;BMP280;10593;48.398;10.698;2023-04-10T06:32:44;96785.34;;;16.65
20867;BMP280;10593;48.398;10.698;2023-04-10T06:35:11;96785.59;;;16.58
20867;BMP280;10593;48.398;10.698;2023-04-10T06:37:37;96788.69;;;16.43
20867;BMP280;10593;48.398;10.698;2023-04-10T06:40:06;96783.31;;;16.20
20867;BMP280;10593;48.398;10.698;2023-04-10T06:42:32;96785.72;;;15.98
20867;BMP280;10593;48.398;10.698;2023-04-10T06:44:58;96775.13;;;15.78
20867;BMP280;10593;48.398;10.698;2023-04-10T06:47:24;96775.69;;;15.59
20867;BMP280;10593;48.398;10.698;2023-04-10T06:49:49;96780.41;;;15.45
20867;BMP280;10593;48.398;10.698;2023-04-10T06:52:16;96778.25;;;15.30
20867;BMP280;10593;48.398;10.698;2023-04-10T06:54:42;96777.78;;;15.14
20867;BMP280;10593;48.398;10.698;2023-04-10T06:57:07;96778.19;;;14.99
20867;BMP280;10593;48.398;10.698;2023-04-10T06:59:33;96787.16;;;14.86
20867;BMP280;10593;48.398;10.698;2023-04-10T07:02:02;96789.25;;;14.72
20867;BMP280;10593;48.398;10.698;2023-04-10T07:04:28;96788.75;;;14.59
20867;BMP280;10593;48.398;10.698;2023-04-10T07:06:55;96794.19;;;14.48
20867;BMP280;10593;48.398;10.698;2023-04-10T07:09:20;96788.41;;;14.37
20867;BMP280;10593;48.398;10.698;2023-04-10T07:11:46;96788.63;;;14.28
20867;BMP280;10593;48.398;10.698;2023-04-10T07:14:12;96777.63;;;14.20
20867;BMP280;10593;48.398;10.698;2023-04-10T07:16:37;96790.63;;;14.16
20867;BMP280;10593;48.398;10.698;2023-04-10T07:19:03;96793.31;;;14.11
20867;BMP280;10593;48.398;10.698;2023-04-10T07:21:28;96783.97;;;14.06
20867;BMP280;10593;48.398;10.698;2023-04-10T07:23:54;96783.13;;;14.05
20867;BMP280;10593;48.398;10.698;2023-04-10T07:26:20;96788.28;;;14.05
20867;BMP280;10593;48.398;10.698;2023-04-10T07:28:46;96783.06;;;14.07
20867;BMP280;10593;48.398;10.698;2023-04-10T07:31:11;96780.47;;;14.08
20867;BMP280;10593;48.398;10.698;2023-04-10T07:33:38;96776.09;;;14.10
20867;BMP280;10593;48.398;10.698;2023-04-10T07:36:04;96778.66;;;14.12
20867;BMP280;10593;48.398;10.698;2023-04-10T07:38:33;96769.97;;;14.14
20867;BMP280;10593;48.398;10.698;2023-04-10T07:40:59;96780.28;;;14.16
20867;BMP280;10593;48.398;10.698;2023-04-10T07:43:25;96788.00;;;14.19
20867;BMP280;10593;48.398;10.698;2023-04-10T07:45:51;96781.91;;;14.21
20867;BMP280;10593;48.398;10.698;2023-04-10T07:48:17;96780.13;;;14.23
20867;BMP280;10593;48.398;10.698;2023-04-10T07:50:43;96770.59;;;14.25
20867;BMP280;10593;48.398;10.698;2023-04-10T07:53:08;96767.13;;;14.28
20867;BMP280;10593;48.398;10.698;2023-04-10T07:55:52;96765.38;;;14.28
20867;BMP280;10593;48.398;10.698;2023-04-10T07:58:18;96760.09;;;14.31
20867;BMP280;10593;48.398;10.698;2023-04-10T08:00:43;96761.78;;;14.34
20867;BMP280;10593;48.398;10.698;2023-04-10T08:03:10;96760.91;;;14.35
20867;BMP280;10593;48.398;10.698;2023-04-10T08:05:37;96757.38;;;14.39
20867;BMP280;10593;48.398;10.698;2023-04-10T08:08:03;96754.66;;;14.43
20867;BMP280;10593;48.398;10.698;2023-04-10T08:10:28;96758.00;;;14.48
20867;BMP280;10593;48.398;10.698;2023-04-10T08:12:54;96754.44;;;14.52
20867;BMP280;10593;48.398;10.698;2023-04-10T08:15:20;96765.50;;;14.57
20867;BMP280;10593;48.398;10.698;2023-04-10T08:17:46;96762.00;;;14.60
20867;BMP280;10593;48.398;10.698;2023-04-10T08:20:12;96764.47;;;14.64
20867;BMP280;10593;48.398;10.698;2023-04-10T08:22:38;96767.78;;;14.69
20867;BMP280;10593;48.398;10.698;2023-04-10T08:25:04;96768.59;;;14.71
20867;BMP280;10593;48.398;10.698;2023-04-10T08:27:30;96771.06;;;14.75
20867;BMP280;10593;48.398;10.698;2023-04-10T08:29:56;96766.75;;;14.76
20867;BMP280;10593;48.398;10.698;2023-04-10T08:32:21;96769.25;;;14.79
20867;BMP280;10593;48.398;10.698;2023-04-10T08:34:48;96773.50;;;14.81
20867;BMP280;10593;48.398;10.698;2023-04-10T08:37:14;96776.91;;;14.83
20867;BMP280;10593;48.398;10.698;2023-04-10T08:39:40;96765.53;;;14.89
20867;BMP280;10593;48.398;10.698;2023-04-10T08:42:07;96775.69;;;14.96
20867;BMP280;10593;48.398;10.698;2023-04-10T08:44:32;96773.03;;;14.99
20867;BMP280;10593;48.398;10.698;2023-04-10T08:47:01;96766.03;;;15.03
20867;BMP280;10593;48.398;10.698;2023-04-10T08:49:53;96765.91;;;15.07
20867;BMP280;10593;48.398;10.698;2023-04-10T08:52:23;96763.16;;;15.12
20867;BMP280;10593;48.398;10.698;2023-04-10T08:54:55;96754.38;;;15.17
20867;BMP280;10593;48.398;10.698;2023-04-10T08:57:24;96752.53;;;15.22
20867;BMP280;10593;48.398;10.698;2023-04-10T08:59:51;96750.66;;;15.27
20867;BMP280;10593;48.398;10.698;2023-04-10T09:02:18;96760.91;;;15.33
20867;BMP280;10593;48.398;10.698;2023-04-10T09:04:51;96747.81;;;15.38
20867;BMP280;10593;48.398;10.698;2023-04-10T09:07:20;96751.16;;;15.41
20867;BMP280;10593;48.398;10.698;2023-04-10T09:09:47;96745.00;;;15.45
20867;BMP280;10593;48.398;10.698;2023-04-10T09:12:13;96747.44;;;15.50
20867;BMP280;10593;48.398;10.698;2023-04-10T09:14:41;96747.38;;;15.53
20867;BMP280;10593;48.398;10.698;2023-04-10T09:17:22;96743.84;;;15.55
20867;BMP280;10593;48.398;10.698;2023-04-10T09:19:57;96740.28;;;15.59
20867;BMP280;10593;48.398;10.698;2023-04-10T09:22:34;96738.41;;;15.64
20867;BMP280;10593;48.398;10.698;2023-04-10T09:25:02;96738.31;;;15.67
20867;BMP280;10593;48.398;10.698;2023-04-10T09:27:34;96733.00;;;15.72
20867;BMP280;10593;48.398;10.698;2023-04-10T09:30:00;96740.63;;;15.76
20867;BMP280;10593;48.398;10.698;2023-04-10T09:32:44;96736.03;;;15.84
20867;BMP280;10593;48.398;10.698;2023-04-10T09:35:14;96728.09;;;15.90
20867;BMP280;10593;48.398;10.698;2023-04-10T09:37:42;96730.56;;;15.95
20867;BMP280;10593;48.398;10.698;2023-04-10T09:40:24;96727.78;;;15.99
20867;BMP280;10593;48.398;10.698;2023-04-10T09:42:50;96725.13;;;16.02
20867;BMP280;10593;48.398;10.698;2023-04-10T09:45:16;96723.22;;;16.07
20867;BMP280;10593;48.398;10.698;2023-04-10T09:48:02;96712.69;;;16.13
20867;BMP280;10593;48.398;10.698;2023-04-10T09:50:38;96711.63;;;16.19
20867;BMP280;10593;48.398;10.698;2023-04-10T09:53:14;96703.69;;;16.23
20867;BMP280;10593;48.398;10.698;2023-04-10T09:55:42;96700.16;;;16.26
20867;BMP280;10593;48.398;10.698;2023-04-10T09:58:08;96694.84;;;16.30
20867;BMP280;10593;48.398;10.698;2023-04-10T10:00:43;96694.66;;;16.36
20867;BMP280;10593;48.398;10.698;2023-04-10T10:03:15;96700.47;;;16.43
20867;BMP280;10593;48.398;10.698;2023-04-10T10:05:49;96683.03;;;16.48
20867;BMP280;10593;48.398;10.698;2023-04-10T10:08:15;96688.03;;;16.52
20867;BMP280;10593;48.398;10.698;2023-04-10T10:10:52;96676.69;;;16.56
20867;BMP280;10593;48.398;10.698;2023-04-10T10:13:43;96660.09;;;16.60
20867;BMP280;10593;48.398;10.698;2023-04-10T10:16:39;96665.97;;;16.65
20867;BMP280;10593;48.398;10.698;2023-04-10T10:19:16;96662.38;;;16.69
20867;BMP280;10593;48.398;10.698;2023-04-10T10:21:45;96657.03;;;16.74
20867;BMP280;10593;48.398;10.698;2023-04-10T10:24:12;96648.16;;;16.79
20867;BMP280;10593;48.398;10.698;2023-04-10T10:26:39;96642.81;;;16.83
20867;BMP280;10593;48.398;10.698;2023-04-10T10:29:08;96640.97;;;16.87
20867;BMP280;10593;48.398;10.698;2023-04-10T10:31:39;96640.84;;;16.90
20867;BMP280;10593;48.398;10.698;2023-04-10T10:34:05;96639.03;;;16.92
20867;BMP280;10593;48.398;10.698;2023-04-10T10:36:38;96632.09;;;16.92
20867;BMP280;10593;48.398;10.698;2023-04-10T10:42:42;96622.41;;;16.97
20867;BMP280;10593;48.398;10.698;2023-04-10T10:45:17;96617.94;;;17.01
20867;BMP280;10593;48.398;10.698;2023-04-10T10:47:53;96613.53;;;17.03
20867;BMP280;10593;48.398;10.698;2023-04-10T10:50:20;96610.81;;;17.06
20867;BMP280;10593;48.398;10.698;2023-04-10T10:52:55;96595.16;;;17.09
20867;BMP280;10593;48.398;10.698;2023-04-10T10:57:54;96605.16;;;17.18
20867;BMP280;10593;48.398;10.698;2023-04-10T11:00:24;96595.47;;;17.23
20867;BMP280;10593;48.398;10.698;2023-04-10T11:05:58;96609.91;;;17.30
20867;BMP280;10593;48.398;10.698;2023-04-10T11:08:40;96605.56;;;17.30
20867;BMP280;10593;48.398;10.698;2023-04-10T11:11:24;96603.75;;;17.32
20867;BMP280;10593;48.398;10.698;2023-04-10T11:16:20;96581.06;;;17.37
20867;BMP280;10593;48.398;10.698;2023-04-10T11:21:22;96587.56;;;17.49
20867;BMP280;10593;48.398;10.698;2023-04-10T11:31:43;96580.97;;;17.62
20867;BMP280;10593;48.398;10.698;2023-04-10T11:34:10;96570.38;;;17.66
20867;BMP280;10593;48.398;10.698;2023-04-10T11:36:43;96577.97;;;17.71
20867;BMP280;10593;48.398;10.698;2023-04-10T11:39:12;96574.38;;;17.75
20867;BMP280;10593;48.398;10.698;2023-04-10T11:41:44;96564.75;;;17.77
20867;BMP280;10593;48.398;10.698;2023-04-10T11:44:16;96562.81;;;17.82
20867;BMP280;10593;48.398;10.698;2023-04-10T11:46:46;96553.19;;;17.84
20867;BMP280;10593;48.398;10.698;2023-04-10T11:49:18;96559.06;;;17.89
20867;BMP280;10593;48.398;10.698;2023-04-10T11:51:47;96548.53;;;17.92
20867;BMP280;10593;48.398;10.698;2023-04-10T11:54:16;96542.28;;;17.96
20867;BMP280;10593;48.398;10.698;2023-04-10T11:57:04;96545.53;;;18.01
20867;BMP280;10593;48.398;10.698;2023-04-10T11:59:32;96532.31;;;18.05
20867;BMP280;10593;48.398;10.698;2023-04-10T12:02:13;96535.50;;;18.12
20867;BMP280;10593;48.398;10.698;2023-04-10T12:04:40;96538.78;;;18.17
20867;BMP280;10593;48.398;10.698;2023-04-10T12:07:06;96536.81;;;18.22
20867;BMP280;10593;48.398;10.698;2023-04-10T12:09:32;96539.19;;;18.28
20867;BMP280;10593;48.398;10.698;2023-04-10T12:12:06;96538.16;;;18.32
20867;BMP280;10593;48.398;10.698;2023-04-10T12:14:36;96539.75;;;18.34
20867;BMP280;10593;48.398;10.698;2023-04-10T12:17:05;96538.03;;;18.35
20867;BMP280;10593;48.398;10.698;2023-04-10T12:19:33;96531.00;;;18.37
20867;BMP280;10593;48.398;10.698;2023-04-10T12:21:59;96524.97;;;18.36
20867;BMP280;10593;48.398;10.698;2023-04-10T12:24:47;96519.66;;;18.38
20867;BMP280;10593;48.398;10.698;2023-04-10T12:27:27;96530.06;;;18.38
20867;BMP280;10593;48.398;10.698;2023-04-10T12:29:55;96523.13;;;18.38
20867;BMP280;10593;48.398;10.698;2023-04-10T12:32:22;96513.53;;;18.39
20867;BMP280;10593;48.398;10.698;2023-04-10T12:34:53;96518.66;;;18.42
20867;BMP280;10593;48.398;10.698;2023-04-10T12:37:22;96506.41;;;18.44
20867;BMP280;10593;48.398;10.698;2023-04-10T12:39:48;96512.38;;;18.46
20867;BMP280;10593;48.398;10.698;2023-04-10T12:42:20;96507.03;;;18.49
20867;BMP280;10593;48.398;10.698;2023-04-10T12:45:00;96497.34;;;18.52
20867;BMP280;10593;48.398;10.698;2023-04-10T12:47:27;96499.78;;;18.55
20867;BMP280;10593;48.398;10.698;2023-04-10T12:50:12;96492.69;;;18.59
20867;BMP280;10593;48.398;10.698;2023-04-10T12:52:44;96485.66;;;18.61
20867;BMP280;10593;48.398;10.698;2023-04-10T12:55:16;96496.03;;;18.62
20867;BMP280;10593;48.398;10.698;2023-04-10T12:57:45;96490.72;;;18.64
20867;BMP280;10593;48.398;10.698;2023-04-10T13:00:17;96487.97;;;18.67
20867;BMP280;10593;48.398;10.698;2023-04-10T13:02:44;96487.91;;;18.68
20867;BMP280;10593;48.398;10.698;2023-04-10T13:05:10;96484.34;;;18.71
20867;BMP280;10593;48.398;10.698;2023-04-10T13:07:37;96485.94;;;18.73
20867;BMP280;10593;48.398;10.698;2023-04-10T13:10:04;96478.06;;;18.75
20867;BMP280;10593;48.398;10.698;2023-04-10T13:12:30;96475.47;;;18.75
20867;BMP280;10593;48.398;10.698;2023-04-10T13:14:56;96471.03;;;18.77
20867;BMP280;10593;48.398;10.698;2023-04-10T13:17:23;96477.00;;;18.79
20867;BMP280;10593;48.398;10.698;2023-04-10T13:19:49;96470.75;;;18.83
20867;BMP280;10593;48.398;10.698;2023-04-10T13:22:14;96470.53;;;18.87
20867;BMP280;10593;48.398;10.698;2023-04-10T13:24:41;96465.09;;;18.92
20867;BMP280;10593;48.398;10.698;2023-04-10T13:27:08;96466.75;;;18.94
20867;BMP280;10593;48.398;10.698;2023-04-10T13:29:35;96457.03;;;18.98
20867;BMP280;10593;48.398;10.698;2023-04-10T13:32:01;96442.22;;;18.98
20867;BMP280;10593;48.398;10.698;2023-04-10T13:34:30;96437.72;;;19.02
20867;BMP280;10593;48.398;10.698;2023-04-10T13:36:56;96438.44;;;19.05
20867;BMP280;10593;48.398;10.698;2023-04-10T13:39:21;96433.91;;;19.08
20867;BMP280;10593;48.398;10.698;2023-04-10T13:41:47;96431.16;;;19.11
20867;BMP280;10593;48.398;10.698;2023-04-10T13:44:13;96428.41;;;19.14
20867;BMP280;10593;48.398;10.698;2023-04-10T13:46:39;96423.06;;;19.17
20867;BMP280;10593;48.398;10.698;2023-04-10T13:49:04;96425.47;;;19.22
20867;BMP280;10593;48.398;10.698;2023-04-10T13:51:30;96411.34;;;19.26
20867;BMP280;10593;48.398;10.698;2023-04-10T13:53:56;96403.41;;;19.29
20867;BMP280;10593;48.398;10.698;2023-04-10T13:56:21;96401.47;;;19.32
20867;BMP280;10593;48.398;10.698;2023-04-10T13:58:48;96410.06;;;19.34
20867;BMP280;10593;48.398;10.698;2023-04-10T14:01:13;96404.72;;;19.37
20867;BMP280;10593;48.398;10.698;2023-04-10T14:03:39;96406.41;;;19.38
20867;BMP280;10593;48.398;10.698;2023-04-10T14:06:05;96401.09;;;19.40
20867;BMP280;10593;48.398;10.698;2023-04-10T14:08:31;96402.72;;;19.42
20867;BMP280;10593;48.398;10.698;2023-04-10T14:10:56;96390.59;;;19.41
20867;BMP280;10593;48.398;10.698;2023-04-10T14:13:22;96393.16;;;19.43
20867;BMP280;10593;48.398;10.698;2023-04-10T14:15:48;96385.31;;;19.43
20867;BMP280;10593;48.398;10.698;2023-04-10T14:18:16;96378.16;;;19.46
20867;BMP280;10593;48.398;10.698;2023-04-10T14:20:42;96381.53;;;19.48
20867;BMP280;10593;48.398;10.698;2023-04-10T14:23:09;96376.19;;;19.51
20867;BMP280;10593;48.398;10.698;2023-04-10T14:25:41;96363.94;;;19.53
20867;BMP280;10593;48.398;10.698;2023-04-10T14:28:06;96367.28;;;19.55
20867;BMP280;10593;48.398;10.698;2023-04-10T14:30:33;96365.53;;;19.56
20867;BMP280;10593;48.398;10.698;2023-04-10T14:32:58;96365.53;;;19.56